createdAt,value
2023-02-01T00:00:36.513Z,17.60
2023-02-01T00:06:00.337Z,16.00
2023-02-01T00:11:09.756Z,19.80
2023-02-01T00:16:17.331Z,16.90
2023-02-01T00:21:21.635Z,14.40
2023-02-01T00:26:31.651Z,21.70
2023-02-01T00:31:34.389Z,21.60
2023-02-01T00:36:37.150Z,13.20
2023-02-01T00:41:39.806Z,20.20
2023-02-01T00:46:42.377Z,17.10
2023-02-01T00:51:44.942Z,19.50
2023-02-01T00:56:47.440Z,13.60
2023-02-01T01:01:50.165Z,10.10
2023-02-01T01:06:52.728Z,9.80
2023-02-01T01:11:55.483Z,11.60
2023-02-01T01:16:58.250Z,13.60
2023-02-01T01:22:00.963Z,11.90
2023-02-01T01:27:03.989Z,12.10
2023-02-01T01:32:06.712Z,9.50
2023-02-01T01:37:09.553Z,10.10
2023-02-01T01:42:13.689Z,12.00
2023-02-01T01:47:17.018Z,15.90
2023-02-01T01:52:19.922Z,16.00
2023-02-01T01:57:29.522Z,15.60
2023-02-01T02:02:32.424Z,11.70
2023-02-01T02:07:40.148Z,20.50
2023-02-01T02:12:47.136Z,14.00
2023-02-01T02:18:01.907Z,16.40
2023-02-01T02:23:27.741Z,13.60
2023-02-01T02:28:59.600Z,14.80
2023-02-01T02:34:14.123Z,16.90
2023-02-01T02:39:35.575Z,15.60
2023-02-01T02:45:26.885Z,15.50
2023-02-01T02:51:00.109Z,19.90
2023-02-01T02:56:25.209Z,21.40
2023-02-01T03:01:48.345Z,17.10
2023-02-01T03:06:53.343Z,14.40
2023-02-01T03:12:20.449Z,15.50
2023-02-01T03:17:32.059Z,11.50
2023-02-01T03:22:39.045Z,22.50
2023-02-01T03:27:53.371Z,18.00
2023-02-01T03:33:02.235Z,16.30
2023-02-01T03:38:14.897Z,18.50
2023-02-01T03:43:21.440Z,17.40
2023-02-01T03:48:26.401Z,12.00
2023-02-01T03:53:30.337Z,18.70
2023-02-01T03:58:33.150Z,19.70
2023-02-01T04:03:35.805Z,17.40
2023-02-01T04:08:38.826Z,14.70
2023-02-01T04:13:41.681Z,15.10
2023-02-01T04:18:44.594Z,21.10
2023-02-01T04:23:47.267Z,16.80
2023-02-01T04:28:49.978Z,17.80
2023-02-01T04:33:54.689Z,19.30
2023-02-01T04:38:57.389Z,20.10
2023-02-01T04:43:59.973Z,18.20
2023-02-01T04:49:02.595Z,15.10
2023-02-01T04:54:06.024Z,18.70
2023-02-01T04:59:08.711Z,16.00
2023-02-01T05:04:11.319Z,21.00
2023-02-01T05:09:14.057Z,20.90
2023-02-01T05:14:17.157Z,15.50
2023-02-01T05:19:19.923Z,17.50
2023-02-01T05:24:22.633Z,21.30
2023-02-01T05:29:25.693Z,21.60
2023-02-01T05:34:28.618Z,18.10
2023-02-01T05:39:31.161Z,14.00
2023-02-01T05:44:33.724Z,18.00
2023-02-01T05:49:36.325Z,18.60
2023-02-01T05:54:38.946Z,19.40
2023-02-01T05:59:45.756Z,12.50
2023-02-01T06:04:48.596Z,22.20
2023-02-01T06:09:51.300Z,15.10
2023-02-01T06:14:53.874Z,22.50
2023-02-01T06:19:56.621Z,20.60
2023-02-01T06:25:00.142Z,15.60
2023-02-01T06:30:03.971Z,18.40
2023-02-01T06:35:17.030Z,21.90
2023-02-01T06:40:19.939Z,18.50
2023-02-01T06:45:22.439Z,22.40
2023-02-01T06:50:25.410Z,18.90
2023-02-01T06:55:28.078Z,21.80
2023-02-01T07:00:30.890Z,18.20
2023-02-01T07:05:33.518Z,16.50
2023-02-01T07:10:36.572Z,12.70
2023-02-01T07:15:39.253Z,19.90
2023-02-01T07:20:42.117Z,12.60
2023-02-01T07:25:44.784Z,16.40
2023-02-01T07:30:51.907Z,14.90
2023-02-01T07:35:55.117Z,15.10
2023-02-01T07:41:02.251Z,11.10
2023-02-01T07:46:06.535Z,9.90
2023-02-01T07:51:13.097Z,12.10
2023-02-01T07:56:18.686Z,18.20
2023-02-01T08:01:27.475Z,12.80
2023-02-01T08:06:33.028Z,11.50
2023-02-01T08:11:38.824Z,8.50
2023-02-01T08:16:41.770Z,8.60
2023-02-01T08:21:44.369Z,9.60
2023-02-01T08:26:47.012Z,9.90
2023-02-01T08:31:49.835Z,12.20
2023-02-01T08:36:58.322Z,7.10
2023-02-01T08:42:21.104Z,8.10
2023-02-01T08:47:23.874Z,9.10
2023-02-01T08:52:26.680Z,6.80
2023-02-01T08:57:29.248Z,8.20
2023-02-01T09:02:31.904Z,5.20
2023-02-01T09:07:35.839Z,5.00
2023-02-01T09:12:38.761Z,4.40
2023-02-01T09:17:44.062Z,4.70
2023-02-01T09:22:46.586Z,7.20
2023-02-01T09:27:49.225Z,6.70
2023-02-01T09:32:51.970Z,6.40
2023-02-01T09:37:55.348Z,5.70
2023-02-01T09:43:01.262Z,6.40
2023-02-01T09:48:14.685Z,4.50
2023-02-01T09:53:28.936Z,5.60
2023-02-01T09:58:39.130Z,6.20
2023-02-01T10:03:41.873Z,2.50
2023-02-01T10:09:16.706Z,2.10
2023-02-01T10:14:46.982Z,3.90
2023-02-01T10:20:10.701Z,3.00
2023-02-01T10:25:42.162Z,4.60
2023-02-01T10:30:47.506Z,7.40
2023-02-01T10:35:57.572Z,6.30
2023-02-01T10:41:08.843Z,4.50
2023-02-01T10:46:11.644Z,8.80
2023-02-01T10:51:21.920Z,4.90
2023-02-01T10:56:27.662Z,3.80
2023-02-01T11:01:42.198Z,4.80
2023-02-01T11:06:47.459Z,5.60
2023-02-01T11:11:50.124Z,8.20
2023-02-01T11:16:59.666Z,6.50
2023-02-01T11:22:02.297Z,7.50
2023-02-01T11:27:16.060Z,8.50
2023-02-01T11:32:26.174Z,7.30
2023-02-01T11:37:35.605Z,7.60
2023-02-01T11:42:55.530Z,9.10
2023-02-01T11:47:59.199Z,8.50
2023-02-01T11:53:32.929Z,8.60
2023-02-01T11:58:52.016Z,10.90
2023-02-01T12:04:28.806Z,10.50
2023-02-01T12:09:43.521Z,8.70
2023-02-01T12:15:07.453Z,9.60
2023-02-01T12:20:34.896Z,6.20
2023-02-01T12:25:54.755Z,3.60
2023-02-01T12:31:25.557Z,7.80
2023-02-01T12:36:46.749Z,10.40
2023-02-01T12:42:09.718Z,5.80
2023-02-01T12:47:25.330Z,7.50
2023-02-01T12:53:04.141Z,10.90
2023-02-01T12:58:14.919Z,8.50
2023-02-01T13:03:40.720Z,12.90
2023-02-01T13:08:53.006Z,4.90
2023-02-01T13:14:14.625Z,1.60
2023-02-01T13:19:44.694Z,0.60
2023-02-01T13:25:05.194Z,0.70
2023-02-01T13:30:25.610Z,1.10
2023-02-01T13:35:41.089Z,5.40
2023-02-01T13:41:12.057Z,6.40
2023-02-01T13:46:16.067Z,5.30
2023-02-01T13:51:34.539Z,9.40
2023-02-01T13:56:42.919Z,9.30
2023-02-01T14:01:45.608Z,8.40
2023-02-01T14:06:48.293Z,11.30
2023-02-01T14:11:58.700Z,15.30
2023-02-01T14:17:01.561Z,17.20
2023-02-01T14:22:25.164Z,7.60
2023-02-01T14:27:30.990Z,6.60
2023-02-01T14:32:39.601Z,8.90
2023-02-01T14:37:44.947Z,7.50
2023-02-01T14:42:53.537Z,12.70
2023-02-01T14:48:08.670Z,9.00
2023-02-01T14:53:11.555Z,8.50
2023-02-01T14:58:37.056Z,8.90
2023-02-01T15:03:46.600Z,12.60
2023-02-01T15:08:49.336Z,9.90
2023-02-01T15:13:55.636Z,7.40
2023-02-01T15:19:10.748Z,6.40
2023-02-01T15:24:20.080Z,6.40
2023-02-01T15:29:28.561Z,7.30
2023-02-01T15:34:49.203Z,5.90
2023-02-01T15:40:18.864Z,3.70
2023-02-01T15:45:26.253Z,4.00
2023-02-01T15:50:32.366Z,2.20
2023-02-01T15:55:43.271Z,1.10
2023-02-01T16:00:47.704Z,1.60
2023-02-01T16:05:57.514Z,1.00
2023-02-01T16:11:09.284Z,0.70
2023-02-01T16:16:14.983Z,1.20
2023-02-01T16:21:17.987Z,1.70
2023-02-01T16:26:21.044Z,3.70
2023-02-01T16:31:28.859Z,0.60
2023-02-01T16:36:32.347Z,1.40
2023-02-01T16:41:34.934Z,0.90
2023-02-01T16:46:42.023Z,1.90
2023-02-01T16:51:44.545Z,0.80
2023-02-01T16:56:47.516Z,1.50
2023-02-01T17:01:50.045Z,3.30
2023-02-01T17:06:53.136Z,2.00
2023-02-01T17:11:55.893Z,4.10
2023-02-01T17:17:01.689Z,2.40
2023-02-01T17:22:04.290Z,3.80
2023-02-01T17:27:06.916Z,2.00
2023-02-01T17:32:26.358Z,3.70
2023-02-01T17:37:34.859Z,5.80
2023-02-01T17:42:39.068Z,3.00
2023-02-01T17:47:41.909Z,3.60
2023-02-01T17:52:44.458Z,4.00
2023-02-01T17:57:48.114Z,4.90
2023-02-01T18:02:50.819Z,2.90
2023-02-01T18:07:54.043Z,6.30
2023-02-01T18:12:57.485Z,4.50
2023-02-01T18:18:00.688Z,6.40
2023-02-01T18:23:03.286Z,4.10
2023-02-01T18:28:05.911Z,7.90
2023-02-01T18:33:13.873Z,6.00
2023-02-01T18:38:16.710Z,6.60
2023-02-01T18:43:20.724Z,6.10
2023-02-01T18:48:26.029Z,7.40
2023-02-01T18:53:28.913Z,8.50
2023-02-01T18:58:31.977Z,5.80
2023-02-01T19:03:40.459Z,10.20
2023-02-01T19:08:51.416Z,7.80
2023-02-01T19:13:55.415Z,6.00
2023-02-01T19:18:57.955Z,9.10
2023-02-01T19:24:00.507Z,7.10
2023-02-01T19:29:03.068Z,11.20
2023-02-01T19:34:06.103Z,15.50
2023-02-01T19:39:09.697Z,10.30
2023-02-01T19:44:12.271Z,8.90
2023-02-01T19:49:15.071Z,9.80
2023-02-01T19:54:17.908Z,11.40
2023-02-01T19:59:22.887Z,12.90
2023-02-01T20:04:26.398Z,8.00
2023-02-01T20:09:29.635Z,8.80
2023-02-01T20:14:32.356Z,11.20
2023-02-01T20:19:34.891Z,9.30
2023-02-01T20:24:38.870Z,9.30
2023-02-01T20:29:42.323Z,10.40
2023-02-01T20:34:44.964Z,13.10
2023-02-01T20:39:47.658Z,9.50
2023-02-01T20:44:50.141Z,14.30
2023-02-01T20:49:53.065Z,10.40
2023-02-01T20:54:55.566Z,8.30
2023-02-01T20:59:58.302Z,8.10
2023-02-01T21:05:00.784Z,7.60
2023-02-01T21:10:04.684Z,13.60
2023-02-01T21:15:07.764Z,9.60
2023-02-01T21:20:11.250Z,7.10
2023-02-01T21:25:13.909Z,7.50
2023-02-01T21:30:16.609Z,11.20
2023-02-01T21:35:19.112Z,10.90
2023-02-01T21:40:21.769Z,8.10
2023-02-01T21:45:24.476Z,7.50
2023-02-01T21:50:27.743Z,10.20
2023-02-01T21:55:30.243Z,11.50
2023-02-01T22:00:32.790Z,10.40
2023-02-01T22:05:35.310Z,8.50
2023-02-01T22:10:39.195Z,12.40
2023-02-01T22:15:41.717Z,8.40
2023-02-01T22:20:45.108Z,12.00
2023-02-01T22:25:47.614Z,11.20
2023-02-01T22:30:50.371Z,8.00
2023-02-01T22:35:53.033Z,8.40
2023-02-01T22:41:00.726Z,13.30
2023-02-01T22:46:06.597Z,11.30
2023-02-01T22:51:24.014Z,16.70
2023-02-01T22:56:32.483Z,10.10
2023-02-01T23:01:35.668Z,9.80
2023-02-01T23:06:38.659Z,11.10
2023-02-01T23:11:42.325Z,12.20
2023-02-01T23:16:46.395Z,10.20
2023-02-01T23:21:49.724Z,10.80
2023-02-01T23:26:52.320Z,10.00
2023-02-01T23:31:55.046Z,13.90
2023-02-01T23:36:57.820Z,13.70
2023-02-01T23:42:01.683Z,12.50
2023-02-01T23:47:04.733Z,17.60
2023-02-01T23:52:08.076Z,11.00
2023-02-01T23:57:10.740Z,14.70
